createdAt,value
2023-05-09T05:02:20.949Z,92.28
2023-05-09T05:03:20.772Z,92.22
2023-05-09T05:04:20.785Z,92.22
2023-05-09T05:05:25.174Z,92.83
2023-05-09T05:06:20.743Z,92.93
2023-05-09T05:07:20.729Z,93.54
2023-05-09T05:08:20.731Z,93.54
2023-05-09T05:09:20.693Z,93.43
2023-05-09T05:10:20.683Z,93.43
2023-05-09T05:11:20.696Z,93.33
2023-05-09T05:12:20.685Z,93.43
2023-05-09T05:13:25.778Z,93.43
2023-05-09T05:14:20.634Z,93.43
2023-05-09T05:15:20.625Z,92.83
2023-05-09T05:16:20.637Z,93.13
2023-05-09T05:17:20.632Z,93.13
2023-05-09T05:18:20.778Z,93.33
2023-05-09T05:19:20.580Z,93.58
2023-05-09T05:20:20.568Z,93.38
2023-05-09T05:21:20.567Z,93.68
2023-05-09T05:22:20.555Z,94.19
2023-05-09T05:23:20.561Z,94.29
2023-05-09T05:24:25.546Z,94.19
2023-05-09T05:25:20.509Z,93.99
2023-05-09T05:26:20.513Z,93.99
2023-05-09T05:27:20.497Z,93.88
2023-05-09T05:28:20.477Z,93.88
2023-05-09T05:29:20.483Z,93.88
2023-05-09T05:30:20.460Z,94.19
2023-05-09T05:31:20.508Z,94.19
2023-05-09T05:32:20.432Z,94.09
2023-05-09T05:33:20.425Z,94.04
2023-05-09T05:34:20.539Z,94.24
2023-05-09T05:35:25.456Z,94.04
2023-05-09T05:36:20.397Z,93.84
2023-05-09T05:37:20.376Z,93.63
2023-05-09T05:38:20.363Z,93.74
2023-05-09T05:39:20.354Z,93.63
2023-05-09T05:40:20.348Z,93.63
2023-05-09T05:41:20.335Z,93.33
2023-05-09T05:42:20.330Z,92.93
2023-05-09T05:43:20.317Z,93.43
2023-05-09T05:44:20.304Z,93.43
2023-05-09T05:45:20.291Z,93.23
2023-05-09T05:46:25.324Z,93.33
2023-05-09T05:47:20.259Z,93.29
2023-05-09T05:48:20.269Z,93.29
2023-05-09T05:49:20.254Z,92.79
2023-05-09T05:50:20.379Z,92.48
2023-05-09T05:51:20.216Z,92.79
2023-05-09T05:52:20.203Z,92.48
2023-05-09T05:53:20.188Z,92.99
2023-05-09T05:54:20.199Z,92.68
2023-05-09T05:55:20.166Z,92.48
2023-05-09T05:56:20.158Z,92.38
2023-05-09T05:57:25.173Z,92.18
2023-05-09T05:58:20.193Z,92.28
2023-05-09T05:59:20.129Z,91.83
2023-05-09T06:00:20.138Z,92.28
2023-05-09T06:01:20.103Z,92.08
2023-05-09T06:02:20.107Z,92.13
2023-05-09T06:03:20.171Z,92.38
2023-05-09T06:04:20.091Z,92.13
2023-05-09T06:05:20.056Z,91.83
2023-05-09T06:06:20.060Z,91.83
2023-05-09T06:07:20.027Z,91.83
2023-05-09T06:08:25.057Z,92.13
2023-05-09T06:09:20.024Z,91.42
2023-05-09T06:10:20.029Z,91.32
2023-05-09T06:11:19.985Z,91.22
2023-05-09T06:12:19.991Z,91.22
2023-05-09T06:13:20.014Z,91.12
2023-05-09T06:14:19.955Z,91.22
2023-05-09T06:15:19.940Z,91.12
2023-05-09T06:16:20.678Z,91.42
2023-05-09T06:17:19.993Z,91.32
2023-05-09T06:18:19.925Z,91.22
2023-05-09T06:19:24.913Z,91.22
2023-05-09T06:20:19.890Z,90.98
2023-05-09T06:21:19.888Z,91.32
2023-05-09T06:22:20.085Z,91.69
2023-05-09T06:23:19.851Z,91.08
2023-05-09T06:24:31.650Z,91.69
2023-05-09T06:25:20.843Z,91.08
2023-05-09T06:26:19.823Z,90.98
2023-05-09T06:27:19.813Z,90.78
2023-05-09T06:28:19.790Z,91.18
2023-05-09T06:29:19.778Z,91.49
2023-05-09T06:30:26.643Z,91.58
2023-05-09T06:31:19.813Z,91.74
2023-05-09T06:32:19.746Z,90.73
2023-05-09T06:33:19.734Z,91.85
2023-05-09T06:34:19.722Z,90.73
2023-05-09T06:35:19.713Z,90.83
2023-05-09T06:36:19.718Z,90.94
2023-05-09T06:37:19.697Z,90.94
2023-05-09T06:38:19.865Z,90.83
2023-05-09T06:39:19.684Z,90.83
2023-05-09T06:40:19.674Z,90.33
2023-05-09T06:41:24.683Z,90.73
2023-05-09T06:42:19.633Z,90.73
2023-05-09T06:43:19.633Z,91.03
2023-05-09T06:44:19.612Z,90.73
2023-05-09T06:45:19.848Z,91.44
2023-05-09T06:46:19.615Z,91.64
2023-05-09T06:47:19.575Z,90.63
2023-05-09T06:48:19.582Z,90.63
2023-05-09T06:49:19.553Z,91.85
2023-05-09T06:50:19.552Z,91.64
2023-05-09T06:51:19.541Z,91.44
2023-05-09T06:52:24.546Z,90.83
2023-05-09T06:53:19.510Z,91.34
2023-05-09T06:54:19.613Z,90.83
2023-05-09T06:55:19.499Z,91.74
2023-05-09T06:56:20.041Z,90.73
2023-05-09T06:57:19.468Z,91.74
2023-05-09T06:58:19.484Z,90.83
2023-05-09T06:59:19.447Z,90.73
2023-05-09T07:00:19.439Z,90.94
2023-05-09T07:01:19.451Z,90.43
2023-05-09T07:02:19.408Z,90.33
2023-05-09T07:03:24.417Z,90.23
2023-05-09T07:04:19.408Z,90.53
2023-05-09T07:05:19.404Z,90.43
2023-05-09T07:06:19.389Z,90.43
2023-05-09T07:07:19.349Z,90.73
2023-05-09T07:08:19.356Z,90.33
2023-05-09T07:09:19.345Z,90.83
2023-05-09T07:10:19.454Z,90.83
2023-05-09T07:11:19.321Z,90.83
2023-05-09T07:12:19.307Z,90.73
2023-05-09T07:13:19.430Z,90.53
2023-05-09T07:14:24.306Z,90.73
2023-05-09T07:15:32.560Z,90.39
2023-05-09T07:16:19.299Z,90.49
2023-05-09T07:17:23.543Z,90.49
2023-05-09T07:18:19.247Z,89.78
2023-05-09T07:19:19.268Z,90.08
2023-05-09T07:20:19.216Z,89.68
2023-05-09T07:21:19.193Z,89.17
2023-05-09T07:22:19.372Z,89.37
2023-05-09T07:23:19.215Z,89.68
2023-05-09T07:24:19.161Z,88.73
2023-05-09T07:25:24.293Z,88.32
2023-05-09T07:26:19.152Z,88.73
2023-05-09T07:27:19.188Z,88.23
2023-05-09T07:28:19.144Z,88.83
2023-05-09T07:29:19.107Z,88.68
2023-05-09T07:30:19.170Z,87.88
2023-05-09T07:31:19.090Z,88.39
2023-05-09T07:32:19.082Z,87.88
2023-05-09T07:33:19.059Z,87.48
2023-05-09T07:34:19.053Z,86.87
2023-05-09T07:35:19.072Z,87.48
2023-05-09T07:36:24.052Z,87.27
2023-05-09T07:37:19.025Z,86.93
2023-05-09T07:38:19.003Z,86.93
2023-05-09T07:39:18.994Z,86.83
2023-05-09T07:40:19.204Z,86.53
2023-05-09T07:41:19.133Z,87.03
2023-05-09T07:42:18.967Z,86.83
2023-05-09T07:43:18.948Z,87.18
2023-05-09T07:44:18.932Z,87.58
2023-05-09T07:45:21.994Z,87.54
2023-05-09T07:46:18.951Z,87.54
2023-05-09T07:47:24.023Z,87.03
2023-05-09T07:48:18.885Z,86.83
2023-05-09T07:49:18.871Z,86.83
2023-05-09T07:50:18.865Z,86.83
2023-05-09T07:51:18.861Z,86.89
2023-05-09T07:52:18.839Z,87.13
2023-05-09T07:53:18.875Z,86.79
2023-05-09T07:54:18.838Z,86.58
2023-05-09T07:55:18.847Z,86.83
2023-05-09T07:56:18.804Z,86.73
2023-05-09T07:57:18.905Z,86.93
2023-05-09T07:58:23.797Z,87.03
2023-05-09T07:59:18.851Z,87.13
2023-05-09T08:00:18.766Z,87.68
2023-05-09T08:01:18.740Z,87.88
2023-05-09T08:02:18.780Z,88.08
2023-05-09T08:03:18.862Z,87.84
2023-05-09T08:04:18.722Z,87.94
2023-05-09T08:05:18.777Z,87.74
2023-05-09T08:06:18.685Z,87.94
2023-05-09T08:07:18.676Z,87.43
2023-05-09T08:08:18.671Z,87.03
2023-05-09T08:09:23.674Z,87.74
2023-05-09T08:10:18.644Z,87.54
2023-05-09T08:11:18.679Z,87.34
2023-05-09T08:12:18.638Z,87.90
2023-05-09T08:13:18.757Z,86.89
2023-05-09T08:14:18.608Z,86.29
2023-05-09T08:15:18.577Z,86.44
2023-05-09T08:16:18.606Z,86.15
2023-05-09T08:17:18.585Z,85.58
2023-05-09T08:18:18.549Z,86.29
2023-05-09T08:19:18.552Z,86.73
2023-05-09T08:20:23.576Z,86.83
2023-05-09T08:21:20.233Z,87.13
2023-05-09T08:22:18.509Z,86.93
2023-05-09T08:23:18.598Z,87.23
2023-05-09T08:24:18.496Z,86.83
2023-05-09T08:25:18.471Z,86.53
2023-05-09T08:26:18.458Z,87.03
2023-05-09T08:27:18.458Z,87.03
2023-05-09T08:28:18.454Z,87.03
2023-05-09T08:29:18.567Z,86.93
2023-05-09T08:30:18.418Z,86.93
2023-05-09T08:31:23.478Z,87.23
2023-05-09T08:32:18.408Z,87.60
2023-05-09T08:33:18.392Z,87.13
2023-05-09T08:34:18.372Z,86.38
2023-05-09T08:35:18.428Z,86.79
2023-05-09T08:36:18.363Z,86.49
2023-05-09T08:37:18.349Z,86.04
2023-05-09T08:38:18.354Z,86.08
2023-05-09T08:39:18.322Z,85.54
2023-05-09T08:40:18.302Z,85.68
2023-05-09T08:41:18.359Z,85.68
2023-05-09T08:42:26.121Z,85.98
2023-05-09T08:43:18.288Z,85.94
2023-05-09T08:44:18.335Z,86.29
2023-05-09T08:45:18.374Z,86.29
2023-05-09T08:46:18.307Z,86.69
2023-05-09T08:47:18.235Z,86.58
2023-05-09T08:48:18.227Z,86.79
2023-05-09T08:49:18.266Z,86.69
2023-05-09T08:50:18.470Z,86.89
2023-05-09T08:51:18.182Z,86.35
2023-05-09T08:52:18.174Z,86.38
2023-05-09T08:53:23.243Z,86.58
2023-05-09T08:54:18.672Z,86.89
2023-05-09T08:55:18.132Z,86.35
2023-05-09T08:56:18.192Z,86.18
2023-05-09T08:57:18.147Z,86.69
2023-05-09T08:58:18.105Z,86.79
2023-05-09T08:59:18.089Z,86.49
2023-05-09T09:00:20.408Z,86.24
2023-05-09T09:01:18.148Z,86.65
2023-05-09T09:02:18.167Z,86.04
2023-05-09T09:03:18.045Z,85.94
2023-05-09T09:04:23.102Z,85.94
2023-05-09T09:05:39.557Z,86.24
2023-05-09T09:06:18.032Z,86.15
2023-05-09T09:07:18.068Z,86.04
2023-05-09T09:08:18.048Z,86.15
2023-05-09T09:09:18.055Z,86.08
2023-05-09T09:10:17.964Z,86.18
2023-05-09T09:11:17.967Z,86.38
2023-05-09T09:12:17.943Z,86.44
2023-05-09T09:13:18.063Z,86.24
2023-05-09T09:14:17.930Z,86.49
2023-05-09T09:15:23.038Z,86.24
2023-05-09T09:16:17.954Z,86.44
2023-05-09T09:17:18.013Z,86.44
2023-05-09T09:18:17.886Z,86.35
2023-05-09T09:19:17.871Z,85.94
2023-05-09T09:20:17.866Z,86.15
2023-05-09T09:21:17.928Z,86.55
2023-05-09T09:22:17.828Z,86.44
2023-05-09T09:23:17.817Z,86.15
2023-05-09T09:24:17.806Z,85.94
2023-05-09T09:25:17.806Z,85.80
2023-05-09T09:26:22.806Z,84.94
2023-05-09T09:27:17.845Z,84.80
2023-05-09T09:28:17.762Z,84.59
2023-05-09T09:29:17.797Z,84.49
2023-05-09T09:30:17.752Z,84.53
2023-05-09T09:31:17.759Z,84.94
2023-05-09T09:32:17.774Z,84.69
2023-05-09T09:33:17.841Z,84.59
2023-05-09T09:34:17.714Z,84.80
2023-05-09T09:35:17.690Z,84.49
2023-05-09T09:36:17.669Z,84.09
2023-05-09T09:37:22.687Z,84.19
2023-05-09T09:38:17.653Z,83.99
2023-05-09T09:39:17.709Z,83.89
2023-05-09T09:40:17.688Z,83.99
2023-05-09T09:41:17.624Z,84.09
2023-05-09T09:42:17.602Z,84.19
2023-05-09T09:43:17.603Z,84.39
2023-05-09T09:44:17.590Z,84.49
2023-05-09T09:45:17.672Z,84.39
2023-05-09T09:46:17.635Z,84.49
2023-05-09T09:47:17.549Z,84.33
2023-05-09T09:48:22.641Z,84.29
2023-05-09T09:49:17.528Z,84.39
2023-05-09T09:50:17.775Z,84.19
2023-05-09T09:51:17.544Z,83.59
2023-05-09T09:52:17.495Z,83.79
2023-05-09T09:53:17.491Z,83.99
2023-05-09T09:54:17.463Z,84.23
2023-05-09T09:55:17.458Z,84.59
2023-05-09T09:56:17.459Z,84.49
2023-05-09T09:57:17.488Z,84.09
2023-05-09T09:58:17.441Z,83.89
2023-05-09T09:59:22.445Z,83.69
2023-05-09T10:00:17.750Z,83.84
2023-05-09T10:01:17.406Z,83.89
2023-05-09T10:02:17.382Z,83.84
2023-05-09T10:03:17.497Z,83.45
2023-05-09T10:04:17.526Z,83.59
2023-05-09T10:05:17.348Z,83.48
2023-05-09T10:06:17.346Z,83.48
2023-05-09T10:07:17.338Z,83.69
2023-05-09T10:08:17.306Z,83.99
2023-05-09T10:09:17.376Z,83.14
2023-05-09T10:10:22.318Z,83.25
2023-05-09T10:11:17.291Z,83.25
2023-05-09T10:12:17.269Z,82.80
2023-05-09T10:13:17.286Z,82.60
2023-05-09T10:14:17.254Z,81.70
2023-05-09T10:15:17.292Z,82.30
2023-05-09T10:16:21.287Z,81.79
2023-05-09T10:17:17.285Z,81.26
2023-05-09T10:18:17.430Z,81.35
2023-05-09T10:19:17.180Z,81.52
2023-05-09T10:20:17.391Z,80.81
2023-05-09T10:21:22.240Z,80.37
2023-05-09T10:22:17.144Z,79.47
2023-05-09T10:23:17.146Z,78.93
2023-05-09T10:24:17.129Z,78.42
2023-05-09T10:25:17.389Z,77.92
2023-05-09T10:26:17.106Z,78.33
2023-05-09T10:27:17.145Z,77.19
2023-05-09T10:28:17.081Z,77.79
2023-05-09T10:29:17.080Z,78.03
2023-05-09T10:30:17.062Z,78.29
2023-05-09T10:31:17.069Z,77.19
2023-05-09T10:32:22.060Z,77.55
2023-05-09T10:33:17.066Z,76.75
2023-05-09T10:34:17.049Z,76.25
2023-05-09T10:35:17.242Z,75.74
2023-05-09T10:36:17.121Z,75.81
2023-05-09T10:37:16.976Z,76.54
2023-05-09T10:38:16.984Z,76.54
2023-05-09T10:39:17.028Z,75.64
2023-05-09T10:40:17.014Z,75.74
2023-05-09T10:41:16.927Z,75.60
2023-05-09T10:42:16.917Z,75.81
2023-05-09T10:43:21.934Z,75.31
2023-05-09T10:44:16.891Z,74.71
2023-05-09T10:45:17.283Z,75.21
2023-05-09T10:46:16.908Z,74.54
2023-05-09T10:47:16.869Z,75.24
2023-05-09T10:48:16.855Z,75.04
2023-05-09T10:49:16.858Z,75.51
2023-05-09T10:50:16.881Z,75.51
2023-05-09T10:51:16.906Z,75.54
2023-05-09T10:52:16.931Z,75.78
2023-05-09T10:53:16.829Z,76.28
2023-05-09T10:54:21.806Z,75.58
2023-05-09T10:55:16.999Z,75.54
2023-05-09T10:56:16.756Z,75.64
2023-05-09T10:57:16.787Z,75.10
2023-05-09T10:58:16.743Z,74.60
2023-05-09T10:59:16.725Z,75.10
2023-05-09T11:00:16.729Z,73.84
2023-05-09T11:01:16.755Z,75.21
2023-05-09T11:02:16.701Z,74.01
2023-05-09T11:03:16.724Z,73.13
2023-05-09T11:04:16.767Z,74.04
2023-05-09T11:05:21.689Z,73.40
2023-05-09T11:06:16.646Z,73.40
2023-05-09T11:07:16.679Z,73.30
2023-05-09T11:08:16.732Z,74.34
2023-05-09T11:09:16.617Z,74.94
2023-05-09T11:10:16.695Z,75.34
2023-05-09T11:11:16.603Z,75.24
2023-05-09T11:12:16.593Z,75.64
2023-05-09T11:13:16.630Z,74.54
2023-05-09T11:14:16.558Z,74.54
2023-05-09T11:15:16.686Z,74.51
2023-05-09T11:16:21.677Z,74.40
2023-05-09T11:17:16.524Z,73.80
2023-05-09T11:18:17.164Z,72.60
2023-05-09T11:19:16.505Z,72.70
2023-05-09T11:20:16.604Z,73.30
2023-05-09T11:21:16.492Z,73.40
2023-05-09T11:22:16.531Z,73.60
2023-05-09T11:23:16.470Z,73.40
2023-05-09T11:24:16.573Z,72.90
2023-05-09T11:25:16.732Z,73.40
2023-05-09T11:26:16.439Z,72.86
2023-05-09T11:27:21.446Z,72.50
2023-05-09T11:28:16.399Z,71.56
2023-05-09T11:29:16.401Z,71.96
2023-05-09T11:30:16.425Z,71.36
2023-05-09T11:31:16.397Z,72.06
2023-05-09T11:32:16.491Z,71.46
2023-05-09T11:33:16.345Z,71.06
2023-05-09T11:34:16.330Z,71.23
2023-05-09T11:35:16.604Z,71.83
2023-05-09T11:36:16.324Z,71.43
2023-05-09T11:37:16.309Z,71.83
2023-05-09T11:38:21.338Z,71.56
2023-05-09T11:39:16.275Z,71.26
2023-05-09T11:40:16.414Z,71.56
2023-05-09T11:41:16.283Z,71.96
2023-05-09T11:42:16.251Z,72.27
2023-05-09T11:43:16.239Z,73.07
2023-05-09T11:44:16.222Z,71.86
2023-05-09T11:45:16.462Z,72.09
2023-05-09T11:46:16.243Z,72.60
2023-05-09T11:47:16.191Z,73.20
2023-05-09T11:48:16.172Z,72.90
2023-05-09T11:49:21.210Z,73.50
2023-05-09T11:50:16.278Z,73.10
2023-05-09T11:51:16.157Z,72.83
2023-05-09T11:52:16.140Z,73.33
2023-05-09T11:53:16.149Z,73.44
2023-05-09T11:54:16.109Z,73.44
2023-05-09T11:55:16.429Z,74.04
2023-05-09T11:56:16.206Z,73.77
2023-05-09T11:57:16.094Z,74.07
2023-05-09T11:58:16.074Z,74.98
2023-05-09T11:59:16.044Z,75.27
2023-05-09T12:00:21.070Z,74.37
2023-05-09T12:01:16.031Z,74.24
2023-05-09T12:02:16.033Z,74.54
2023-05-09T12:03:16.178Z,73.54
2023-05-09T12:04:16.108Z,74.14
2023-05-09T12:05:16.257Z,73.44
2023-05-09T12:06:15.968Z,73.54
2023-05-09T12:07:15.954Z,73.30
2023-05-09T12:08:15.951Z,73.30
2023-05-09T12:09:15.967Z,72.90
2023-05-09T12:10:16.015Z,73.00
2023-05-09T12:11:21.052Z,73.50
2023-05-09T12:12:15.905Z,72.70
2023-05-09T12:13:15.971Z,72.77
2023-05-09T12:14:15.891Z,72.77
2023-05-09T12:15:16.139Z,72.63
2023-05-09T12:16:15.888Z,72.50
2023-05-09T12:17:15.870Z,70.96
2023-05-09T12:18:15.909Z,71.09
2023-05-09T12:19:15.826Z,71.86
2023-05-09T12:20:15.894Z,70.76
2023-05-09T12:21:15.812Z,70.66
2023-05-09T12:22:20.822Z,70.92
2023-05-09T12:23:15.812Z,70.92
2023-05-09T12:24:15.774Z,69.73
2023-05-09T12:25:16.041Z,69.73
2023-05-09T12:26:15.752Z,69.82
2023-05-09T12:27:15.853Z,69.12
2023-05-09T12:28:15.731Z,69.93
2023-05-09T12:29:15.709Z,69.43
2023-05-09T12:30:15.737Z,69.43
2023-05-09T12:31:15.754Z,69.93
2023-05-09T12:32:15.679Z,69.06
2023-05-09T12:33:20.702Z,69.49
2023-05-09T12:34:15.649Z,69.96
2023-05-09T12:35:15.858Z,69.59
2023-05-09T12:36:15.630Z,69.62
2023-05-09T12:37:15.679Z,69.93
2023-05-09T12:38:15.701Z,69.89
2023-05-09T12:39:15.614Z,69.73
2023-05-09T12:40:15.666Z,70.43
2023-05-09T12:41:33.393Z,70.83
2023-05-09T12:42:15.561Z,70.73
2023-05-09T12:43:15.683Z,71.63
2023-05-09T12:44:20.566Z,70.69
2023-05-09T12:45:15.793Z,71.09
2023-05-09T12:46:15.550Z,70.69
2023-05-09T12:47:15.654Z,70.89
2023-05-09T12:48:15.527Z,69.56
2023-05-09T12:49:15.493Z,69.76
2023-05-09T12:50:15.468Z,69.66
2023-05-09T12:51:15.459Z,70.26
2023-05-09T12:52:15.468Z,68.96
2023-05-09T12:53:15.452Z,68.26
2023-05-09T12:54:15.429Z,68.36
2023-05-09T12:55:20.511Z,69.26
2023-05-09T12:56:15.428Z,69.36
2023-05-09T12:57:15.393Z,69.46
2023-05-09T12:58:15.391Z,68.66
2023-05-09T12:59:15.397Z,69.46
2023-05-09T13:00:15.375Z,69.26
2023-05-09T13:01:15.366Z,68.86
2023-05-09T13:02:15.377Z,69.36
2023-05-09T13:03:15.427Z,69.46
2023-05-09T13:04:15.313Z,68.26
2023-05-09T13:05:15.472Z,67.16
2023-05-09T13:06:20.320Z,67.46
2023-05-09T13:07:15.307Z,66.86
2023-05-09T13:08:15.273Z,67.55
2023-05-09T13:09:15.258Z,67.66
2023-05-09T13:10:15.274Z,67.25
2023-05-09T13:11:16.684Z,67.46
2023-05-09T13:12:15.238Z,67.46
2023-05-09T13:13:15.313Z,67.76
2023-05-09T13:14:15.199Z,67.86
2023-05-09T13:15:15.538Z,67.46
2023-05-09T13:16:17.461Z,68.16
2023-05-09T13:17:20.217Z,68.55
2023-05-09T13:18:15.162Z,68.86
2023-05-09T13:19:15.194Z,68.96
2023-05-09T13:20:15.422Z,68.73
2023-05-09T13:21:15.121Z,68.86
2023-05-09T13:22:15.135Z,69.43
2023-05-09T13:23:15.116Z,69.36
2023-05-09T13:24:15.119Z,69.02
2023-05-09T13:25:15.081Z,69.02
2023-05-09T13:26:15.084Z,68.73
2023-05-09T13:27:15.103Z,68.62
2023-05-09T13:28:20.069Z,68.93
2023-05-09T13:29:15.038Z,69.32
2023-05-09T13:30:15.606Z,69.02
2023-05-09T13:31:15.301Z,69.32
2023-05-09T13:32:15.062Z,69.32
2023-05-09T13:33:25.323Z,69.43
2023-05-09T13:34:14.981Z,69.53
2023-05-09T13:35:14.972Z,69.02
2023-05-09T13:36:14.974Z,69.49
2023-05-09T13:37:14.946Z,69.69
2023-05-09T13:38:15.002Z,69.69
2023-05-09T13:39:19.940Z,70.79
2023-05-09T13:40:15.096Z,70.69
2023-05-09T13:41:14.914Z,70.79
2023-05-09T13:42:15.388Z,70.99
2023-05-09T13:43:14.887Z,70.92
2023-05-09T13:44:14.864Z,71.29
2023-05-09T13:45:15.081Z,70.92
2023-05-09T13:46:14.895Z,70.99
2023-05-09T13:47:14.943Z,70.79
2023-05-09T13:48:14.943Z,69.73
2023-05-09T13:49:14.826Z,69.32
2023-05-09T13:50:19.835Z,69.53
2023-05-09T13:51:14.796Z,70.03
2023-05-09T13:52:14.779Z,71.03
2023-05-09T13:53:14.771Z,70.73
2023-05-09T13:54:14.770Z,70.96
2023-05-09T13:55:14.752Z,69.66
2023-05-09T13:56:14.732Z,69.96
2023-05-09T13:57:14.736Z,70.56
2023-05-09T13:58:14.716Z,70.66
2023-05-09T13:59:14.701Z,70.86
2023-05-09T14:00:15.818Z,71.16
2023-05-09T14:01:19.726Z,71.16
2023-05-09T14:02:14.674Z,71.96
2023-05-09T14:03:14.846Z,71.73
2023-05-09T14:04:14.817Z,71.53
2023-05-09T14:05:14.634Z,72.66
2023-05-09T14:06:15.432Z,72.16
2023-05-09T14:07:14.608Z,72.56
2023-05-09T14:08:14.603Z,71.66
2023-05-09T14:09:14.580Z,72.36
2023-05-09T14:10:14.595Z,72.86
2023-05-09T14:11:14.593Z,71.26
2023-05-09T14:12:19.572Z,71.86
2023-05-09T14:13:14.564Z,72.16
2023-05-09T14:14:14.530Z,72.46
2023-05-09T14:15:14.544Z,72.66
2023-05-09T14:16:14.513Z,72.56
2023-05-09T14:17:14.490Z,72.66
2023-05-09T14:18:17.751Z,72.56
2023-05-09T14:19:14.630Z,73.00
2023-05-09T14:20:14.647Z,73.10
2023-05-09T14:21:14.458Z,73.19
2023-05-09T14:22:14.442Z,72.96
2023-05-09T14:23:19.447Z,73.30
2023-05-09T14:24:16.135Z,73.00
2023-05-09T14:25:14.422Z,73.39
2023-05-09T14:26:14.392Z,73.90
2023-05-09T14:27:14.395Z,73.00
2023-05-09T14:28:14.367Z,72.60
2023-05-09T14:29:14.372Z,71.89
2023-05-09T14:30:14.478Z,71.80
2023-05-09T14:31:14.395Z,72.03
2023-05-09T14:32:14.322Z,72.69
2023-05-09T14:33:14.328Z,72.50
2023-05-09T14:34:19.450Z,72.60
2023-05-09T14:35:14.317Z,73.30
2023-05-09T14:36:14.277Z,73.53
2023-05-09T14:37:14.275Z,73.90
2023-05-09T14:38:14.263Z,73.03
2023-05-09T14:39:14.292Z,72.93
2023-05-09T14:40:14.785Z,73.43
2023-05-09T14:41:14.218Z,73.80
2023-05-09T14:42:14.299Z,73.73
2023-05-09T14:43:14.207Z,73.73
2023-05-09T14:44:14.206Z,73.63
2023-05-09T14:45:19.203Z,74.03
2023-05-09T14:46:14.240Z,74.33
2023-05-09T14:47:14.178Z,74.43
2023-05-09T14:48:15.986Z,74.63
2023-05-09T14:49:14.136Z,74.43
2023-05-09T14:50:14.484Z,74.63
2023-05-09T14:51:14.106Z,75.43
2023-05-09T14:52:14.092Z,75.54
2023-05-09T14:53:14.097Z,73.93
2023-05-09T14:54:14.084Z,74.27
2023-05-09T14:55:14.077Z,74.57
2023-05-09T14:56:19.098Z,74.97
2023-05-09T14:57:14.042Z,74.37
2023-05-09T14:58:14.038Z,74.17
2023-05-09T14:59:14.073Z,74.37
2023-05-09T15:00:21.349Z,75.17
2023-05-09T15:01:14.068Z,74.47
2023-05-09T15:02:13.989Z,74.47
2023-05-09T15:03:13.979Z,74.67
2023-05-09T15:04:13.987Z,74.37
2023-05-09T15:05:13.969Z,74.17
2023-05-09T15:06:15.436Z,74.97
2023-05-09T15:07:18.974Z,75.07
2023-05-09T15:08:13.924Z,75.77
2023-05-09T15:09:13.899Z,74.71
2023-05-09T15:10:14.163Z,75.60
2023-05-09T15:11:13.887Z,75.51
2023-05-09T15:12:13.890Z,74.51
2023-05-09T15:13:13.936Z,74.51
2023-05-09T15:14:13.876Z,75.60
2023-05-09T15:15:13.876Z,73.80
2023-05-09T15:16:13.909Z,74.71
2023-05-09T15:17:13.860Z,74.40
2023-05-09T15:18:18.849Z,74.40
2023-05-09T15:19:13.806Z,75.10
2023-05-09T15:20:13.954Z,74.80
2023-05-09T15:21:13.777Z,74.27
2023-05-09T15:22:13.900Z,74.90
2023-05-09T15:23:13.786Z,74.51
2023-05-09T15:24:13.771Z,74.60
2023-05-09T15:25:13.719Z,74.40
2023-05-09T15:26:13.717Z,72.80
2023-05-09T15:27:13.720Z,71.09
2023-05-09T15:28:13.717Z,71.50
2023-05-09T15:29:18.731Z,72.00
2023-05-09T15:30:13.880Z,71.90
2023-05-09T15:31:13.734Z,71.20
2023-05-09T15:32:13.664Z,71.20
2023-05-09T15:33:13.631Z,71.03
2023-05-09T15:34:13.634Z,71.09
2023-05-09T15:35:13.622Z,71.00
2023-05-09T15:36:13.613Z,71.20
2023-05-09T15:37:13.597Z,71.20
2023-05-09T15:38:13.696Z,71.20
2023-05-09T15:39:13.577Z,71.09
2023-05-09T15:40:18.679Z,71.80
2023-05-09T15:41:13.562Z,71.26
2023-05-09T15:42:13.596Z,71.50
2023-05-09T15:43:13.526Z,71.16
2023-05-09T15:44:13.513Z,70.96
2023-05-09T15:45:13.498Z,70.86
2023-05-09T15:46:13.627Z,71.06
2023-05-09T15:47:13.472Z,70.96
2023-05-09T15:48:13.468Z,71.26
2023-05-09T15:49:13.449Z,70.76
2023-05-09T15:50:13.540Z,70.56
2023-05-09T15:51:18.482Z,70.50
2023-05-09T15:52:13.426Z,71.16
2023-05-09T15:53:13.412Z,71.66
2023-05-09T15:54:13.526Z,71.56
2023-05-09T15:55:13.445Z,71.16
2023-05-09T15:56:13.389Z,71.77
2023-05-09T15:57:13.366Z,70.96
2023-05-09T15:58:13.351Z,71.16
2023-05-09T15:59:13.344Z,71.46
2023-05-09T16:00:13.532Z,71.06
2023-05-09T16:01:13.356Z,71.50
2023-05-09T16:02:18.354Z,71.30
2023-05-09T16:03:13.369Z,71.46
2023-05-09T16:04:13.296Z,71.77
2023-05-09T16:05:13.289Z,71.59
2023-05-09T16:06:13.285Z,72.00
2023-05-09T16:07:13.254Z,72.70
2023-05-09T16:08:13.267Z,73.00
2023-05-09T16:09:13.271Z,73.30
2023-05-09T16:10:13.598Z,73.80
2023-05-09T16:11:13.224Z,73.90
2023-05-09T16:12:13.197Z,74.51
2023-05-09T16:13:18.249Z,74.51
2023-05-09T16:14:13.189Z,75.01
2023-05-09T16:15:13.185Z,74.60
2023-05-09T16:16:13.179Z,74.60
2023-05-09T16:17:13.137Z,75.41
2023-05-09T16:18:13.144Z,75.51
2023-05-09T16:19:13.137Z,75.60
2023-05-09T16:20:13.391Z,75.51
2023-05-09T16:21:13.127Z,75.41
2023-05-09T16:22:13.157Z,75.57
2023-05-09T16:23:13.087Z,75.81
2023-05-09T16:24:18.098Z,76.01
2023-05-09T16:25:13.078Z,76.01
2023-05-09T16:26:13.203Z,76.01
2023-05-09T16:27:13.027Z,75.81
2023-05-09T16:28:13.016Z,76.61
2023-05-09T16:29:13.006Z,76.41
2023-05-09T16:30:13.255Z,76.51
2023-05-09T16:31:12.994Z,76.51
2023-05-09T16:32:12.995Z,77.01
2023-05-09T16:33:13.003Z,76.75
2023-05-09T16:34:12.973Z,76.51
2023-05-09T16:35:17.961Z,77.21
2023-05-09T16:36:12.943Z,77.01
2023-05-09T16:37:12.919Z,77.21
2023-05-09T16:38:12.905Z,77.61
2023-05-09T16:39:12.911Z,76.91
2023-05-09T16:40:12.992Z,77.31
2023-05-09T16:41:12.860Z,77.11
2023-05-09T16:42:12.980Z,78.11
2023-05-09T16:43:12.857Z,77.45
2023-05-09T16:44:12.849Z,78.15
2023-05-09T16:45:12.821Z,77.81
2023-05-09T16:46:17.929Z,77.55
2023-05-09T16:47:12.837Z,77.85
2023-05-09T16:48:12.836Z,77.65
2023-05-09T16:49:12.779Z,78.42
2023-05-09T16:50:12.832Z,77.75
2023-05-09T16:51:12.751Z,77.75
2023-05-09T16:52:12.749Z,78.25
2023-05-09T16:53:12.764Z,78.25
2023-05-09T16:54:12.719Z,78.25
2023-05-09T16:55:12.713Z,78.05
2023-05-09T16:56:12.704Z,78.35
2023-05-09T16:57:17.835Z,78.25
2023-05-09T16:58:12.697Z,77.65
2023-05-09T16:59:12.659Z,78.25
2023-05-09T17:00:12.662Z,78.15
2023-05-09T17:01:12.693Z,77.95
2023-05-09T17:02:12.633Z,78.05
2023-05-09T17:03:12.732Z,77.95
2023-05-09T17:04:12.701Z,77.95
2023-05-09T17:05:12.614Z,78.45
2023-05-09T17:06:12.581Z,78.25
2023-05-09T17:07:12.586Z,77.85
2023-05-09T17:08:17.602Z,77.85
2023-05-09T17:09:12.553Z,78.25
2023-05-09T17:10:12.532Z,76.95
2023-05-09T17:11:12.542Z,77.25
2023-05-09T17:12:12.544Z,77.99
2023-05-09T17:13:12.708Z,77.35
2023-05-09T17:14:12.502Z,77.95
2023-05-09T17:15:12.490Z,78.05
2023-05-09T17:16:12.512Z,77.69
2023-05-09T17:17:12.521Z,77.85
2023-05-09T17:18:17.002Z,77.69
2023-05-09T17:19:17.501Z,77.45
2023-05-09T17:20:12.576Z,78.09
2023-05-09T17:21:12.415Z,78.09
2023-05-09T17:22:12.433Z,78.19
2023-05-09T17:23:12.392Z,77.59
2023-05-09T17:24:12.395Z,77.09
2023-05-09T17:25:12.394Z,78.09
2023-05-09T17:26:12.460Z,78.29
2023-05-09T17:27:12.352Z,77.89
2023-05-09T17:28:12.347Z,78.09
2023-05-09T17:29:12.436Z,78.09
2023-05-09T17:30:18.799Z,78.59
2023-05-09T17:31:12.333Z,78.49
2023-05-09T17:32:12.340Z,79.03
2023-05-09T17:33:12.319Z,79.49
2023-05-09T17:34:12.318Z,79.33
2023-05-09T17:35:12.304Z,79.03
2023-05-09T17:36:12.306Z,79.39
2023-05-09T17:37:12.239Z,79.03
2023-05-09T17:38:12.220Z,79.13
2023-05-09T17:39:12.211Z,78.83
2023-05-09T17:40:12.204Z,80.43
2023-05-09T17:41:17.208Z,80.74
2023-05-09T17:42:12.342Z,80.83
2023-05-09T17:43:12.162Z,80.83
2023-05-09T17:44:12.163Z,81.44
2023-05-09T17:45:12.223Z,81.94
2023-05-09T17:46:12.170Z,81.84
2023-05-09T17:47:12.133Z,82.95
2023-05-09T17:48:12.138Z,83.18
2023-05-09T17:49:12.096Z,83.18
2023-05-09T17:50:12.088Z,83.29
2023-05-09T17:51:12.093Z,83.69
2023-05-09T17:52:17.092Z,83.89
2023-05-09T17:53:12.099Z,84.69
2023-05-09T17:54:12.036Z,85.44